Terminal Aerodrome Forecast
Issued by NWS

Home | Current Version | Previous Version | Text Only | Print | Product List | Glossary Off
Versions: 1 2 3 4 5 6 7 8 9 10 11 12 13 14 15 16 17

000
FTUS43 KTOP 301700
TAFMHK
TAF
KMHK 301731Z 3018/3118 36008KT P6SM BKN022
     FM310300 02002KT P6SM SCT008 BKN012
     FM311400 07005KT P6SM FEW015=

USA.gov is the U.S. government's official web portal to all federal, state and local government web resources and services.